sensor_id;sensor_type;location;lat;lon;timestamp;pressure;altitude;pressure_sealevel;temperature;humidity
59315;BME280;46521;50.160;20.802;2022-07-29T00:06:51;99959.27;;;18.57;51.59
59315;BME280;46521;50.160;20.802;2022-07-29T00:16:52;99966.10;;;18.46;51.62
59315;BME280;46521;50.160;20.802;2022-07-29T00:26:53;99955.21;;;18.41;52.09
59315;BME280;46521;50.160;20.802;2022-07-29T00:36:55;99961.84;;;18.32;51.89
59315;BME280;46521;50.160;20.802;2022-07-29T00:46:57;99970.71;;;18.26;52.24
59315;BME280;46521;50.160;20.802;2022-07-29T00:56:59;99959.80;;;18.34;52.29
59315;BME280;46521;50.160;20.802;2022-07-29T01:07:01;99946.79;;;18.37;52.63
59315;BME280;46521;50.160;20.802;2022-07-29T01:17:12;99963.67;;;18.38;52.96
59315;BME280;46521;50.160;20.802;2022-07-29T01:27:41;99958.10;;;18.40;53.23
59315;BME280;46521;50.160;20.802;2022-07-29T01:37:59;99946.41;;;18.34;53.08
59315;BME280;46521;50.160;20.802;2022-07-29T01:48:06;99938.83;;;18.17;53.40
59315;BME280;46521;50.160;20.802;2022-07-29T01:58:13;99937.62;;;18.07;53.30
59315;BME280;46521;50.160;20.802;2022-07-29T02:08:16;99936.83;;;17.93;53.32
59315;BME280;46521;50.160;20.802;2022-07-29T02:18:20;99929.83;;;17.78;53.91
59315;BME280;46521;50.160;20.802;2022-07-29T02:28:26;99919.38;;;17.63;53.78
59315;BME280;46521;50.160;20.802;2022-07-29T02:38:29;99930.67;;;17.52;54.28
59315;BME280;46521;50.160;20.802;2022-07-29T02:48:56;99920.59;;;17.47;54.34
59315;BME280;46521;50.160;20.802;2022-07-29T02:59:02;99913.84;;;17.38;54.48
59315;BME280;46521;50.160;20.802;2022-07-29T03:09:07;99910.53;;;17.36;54.81
59315;BME280;46521;50.160;20.802;2022-07-29T03:19:09;99912.80;;;17.33;54.49
59315;BME280;46521;50.160;20.802;2022-07-29T03:29:10;99920.21;;;17.37;54.54
59315;BME280;46521;50.160;20.802;2022-07-29T03:39:17;99917.32;;;17.45;54.86
59315;BME280;46521;50.160;20.802;2022-07-29T03:49:19;99913.44;;;17.41;54.84
59315;BME280;46521;50.160;20.802;2022-07-29T03:59:23;99929.05;;;17.38;55.04
59315;BME280;46521;50.160;20.802;2022-07-29T04:09:24;99920.41;;;17.42;54.84
59315;BME280;46521;50.160;20.802;2022-07-29T04:19:26;99933.78;;;17.36;54.87
59315;BME280;46521;50.160;20.802;2022-07-29T04:29:27;99928.21;;;17.51;54.84
59315;BME280;46521;50.160;20.802;2022-07-29T04:39:29;99926.55;;;17.76;55.18
59315;BME280;46521;50.160;20.802;2022-07-29T04:49:30;99916.18;;;18.13;54.58
59315;BME280;46521;50.160;20.802;2022-07-29T04:59:31;99908.86;;;18.79;54.01
59315;BME280;46521;50.160;20.802;2022-07-29T05:09:33;99902.97;;;19.02;53.44
59315;BME280;46521;50.160;20.802;2022-07-29T05:19:34;99904.94;;;19.64;53.04
59315;BME280;46521;50.160;20.802;2022-07-29T05:29:36;99911.68;;;20.29;52.14
59315;BME280;46521;50.160;20.802;2022-07-29T05:39:37;99909.50;;;20.86;51.16
59315;BME280;46521;50.160;20.802;2022-07-29T05:49:39;99898.11;;;21.38;50.65
59315;BME280;46521;50.160;20.802;2022-07-29T05:59:40;99911.68;;;21.91;50.00
59315;BME280;46521;50.160;20.802;2022-07-29T06:09:42;99924.25;;;22.38;48.35
59315;BME280;46521;50.160;20.802;2022-07-29T06:19:43;99915.27;;;22.61;47.54
59315;BME280;46521;50.160;20.802;2022-07-29T06:29:45;99905.92;;;22.97;46.82
59315;BME280;46521;50.160;20.802;2022-07-29T06:39:46;99911.20;;;23.38;45.99
59315;BME280;46521;50.160;20.802;2022-07-29T06:49:48;99917.27;;;24.01;45.43
59315;BME280;46521;50.160;20.802;2022-07-29T06:59:49;99927.67;;;24.59;44.82
59315;BME280;46521;50.160;20.802;2022-07-29T07:09:51;99914.83;;;24.98;43.74
59315;BME280;46521;50.160;20.802;2022-07-29T07:19:52;99904.45;;;25.23;43.25
59315;BME280;46521;50.160;20.802;2022-07-29T07:29:53;99899.29;;;25.53;42.16
59315;BME280;46521;50.160;20.802;2022-07-29T07:39:55;99902.20;;;25.89;42.19
59315;BME280;46521;50.160;20.802;2022-07-29T07:49:56;99904.34;;;26.51;41.36
59315;BME280;46521;50.160;20.802;2022-07-29T07:59:57;99893.55;;;26.76;40.35
59315;BME280;46521;50.160;20.802;2022-07-29T08:09:59;99889.78;;;26.93;39.64
59315;BME280;46521;50.160;20.802;2022-07-29T08:20:00;99884.60;;;27.02;39.51
59315;BME280;46521;50.160;20.802;2022-07-29T08:30:02;99875.10;;;27.09;39.58
59315;BME280;46521;50.160;20.802;2022-07-29T08:40:04;99876.17;;;27.49;38.52
59315;BME280;46521;50.160;20.802;2022-07-29T08:50:08;99886.70;;;27.72;38.37
59315;BME280;46521;50.160;20.802;2022-07-29T09:00:11;99867.33;;;27.94;37.96
59315;BME280;46521;50.160;20.802;2022-07-29T09:10:12;99868.45;;;28.43;37.68
59315;BME280;46521;50.160;20.802;2022-07-29T09:20:18;99862.57;;;28.70;37.21
59315;BME280;46521;50.160;20.802;2022-07-29T09:30:19;99868.52;;;28.77;36.98
59315;BME280;46521;50.160;20.802;2022-07-29T09:40:27;99858.13;;;28.84;36.73
59315;BME280;46521;50.160;20.802;2022-07-29T09:50:39;99849.80;;;29.00;36.63
59315;BME280;46521;50.160;20.802;2022-07-29T10:00:45;99839.88;;;29.43;36.45
59315;BME280;46521;50.160;20.802;2022-07-29T10:10:46;99817.09;;;29.58;35.92
59315;BME280;46521;50.160;20.802;2022-07-29T10:20:48;99819.25;;;29.61;35.68
59315;BME280;46521;50.160;20.802;2022-07-29T10:30:51;99816.80;;;29.84;35.50
59315;BME280;46521;50.160;20.802;2022-07-29T11:22:36;99778.68;;;29.79;35.12
59315;BME280;46521;50.160;20.802;2022-07-29T11:32:40;99768.86;;;29.83;35.44
59315;BME280;46521;50.160;20.802;2022-07-29T11:42:43;99758.00;;;29.97;35.17
59315;BME280;46521;50.160;20.802;2022-07-29T11:52:46;99755.95;;;29.89;35.06
59315;BME280;46521;50.160;20.802;2022-07-29T12:02:48;99738.20;;;29.48;35.67
59315;BME280;46521;50.160;20.802;2022-07-29T12:12:53;99742.31;;;28.97;35.81
59315;BME280;46521;50.160;20.802;2022-07-29T12:22:55;99740.52;;;28.58;36.04
59315;BME280;46521;50.160;20.802;2022-07-29T12:32:57;99726.84;;;28.92;36.20
59315;BME280;46521;50.160;20.802;2022-07-29T12:43:05;99713.83;;;29.38;35.65
59315;BME280;46521;50.160;20.802;2022-07-29T12:53:12;99706.67;;;29.42;35.75
59315;BME280;46521;50.160;20.802;2022-07-29T13:03:14;99687.47;;;29.52;35.92
59315;BME280;46521;50.160;20.802;2022-07-29T13:13:15;99675.11;;;29.60;35.22
59315;BME280;46521;50.160;20.802;2022-07-29T13:23:17;99666.85;;;29.46;35.39
59315;BME280;46521;50.160;20.802;2022-07-29T13:33:18;99666.39;;;29.39;35.45
59315;BME280;46521;50.160;20.802;2022-07-29T13:43:20;99654.48;;;29.35;35.62
59315;BME280;46521;50.160;20.802;2022-07-29T13:53:21;99635.08;;;29.17;36.00
59315;BME280;46521;50.160;20.802;2022-07-29T14:03:22;99625.27;;;29.16;35.37
59315;BME280;46521;50.160;20.802;2022-07-29T14:13:25;99617.27;;;28.82;35.95
59315;BME280;46521;50.160;20.802;2022-07-29T14:23:26;99614.78;;;28.61;36.38
59315;BME280;46521;50.160;20.802;2022-07-29T14:33:28;99609.97;;;28.77;36.55
59315;BME280;46521;50.160;20.802;2022-07-29T14:43:30;99591.50;;;28.74;36.55
59315;BME280;46521;50.160;20.802;2022-07-29T14:53:31;99579.81;;;28.73;36.74
59315;BME280;46521;50.160;20.802;2022-07-29T15:03:33;99563.89;;;28.62;37.21
59315;BME280;46521;50.160;20.802;2022-07-29T15:13:34;99550.39;;;28.51;36.96
59315;BME280;46521;50.160;20.802;2022-07-29T15:23:36;99571.45;;;28.40;37.01
59315;BME280;46521;50.160;20.802;2022-07-29T15:33:37;99581.48;;;28.16;37.53
59315;BME280;46521;50.160;20.802;2022-07-29T15:43:48;99604.09;;;28.11;37.42
59315;BME280;46521;50.160;20.802;2022-07-29T15:53:51;99580.36;;;27.87;37.67
59315;BME280;46521;50.160;20.802;2022-07-29T16:03:53;99557.49;;;27.59;37.72
59315;BME280;46521;50.160;20.802;2022-07-29T16:13:54;99559.85;;;27.31;39.00
59315;BME280;46521;50.160;20.802;2022-07-29T16:23:59;99581.42;;;27.07;38.53
59315;BME280;46521;50.160;20.802;2022-07-29T16:34:01;99570.67;;;26.87;38.85
59315;BME280;46521;50.160;20.802;2022-07-29T16:44:02;99578.03;;;26.71;39.09
59315;BME280;46521;50.160;20.802;2022-07-29T16:54:04;99591.06;;;26.64;39.94
59315;BME280;46521;50.160;20.802;2022-07-29T17:04:05;99595.43;;;26.54;40.02
59315;BME280;46521;50.160;20.802;2022-07-29T17:14:08;99596.81;;;26.36;39.88
59315;BME280;46521;50.160;20.802;2022-07-29T17:24:10;99608.23;;;26.23;40.44
59315;BME280;46521;50.160;20.802;2022-07-29T17:34:12;99626.94;;;26.09;40.39
59315;BME280;46521;50.160;20.802;2022-07-29T17:44:14;99662.38;;;25.71;42.10
59315;BME280;46521;50.160;20.802;2022-07-29T17:54:15;99702.51;;;24.04;45.47
59315;BME280;46521;50.160;20.802;2022-07-29T18:04:16;99735.09;;;22.53;47.98
59315;BME280;46521;50.160;20.802;2022-07-29T18:14:20;99762.18;;;21.48;50.65
59315;BME280;46521;50.160;20.802;2022-07-29T18:24:23;99746.66;;;21.14;52.30
59315;BME280;46521;50.160;20.802;2022-07-29T18:34:25;99748.91;;;21.05;53.32
59315;BME280;46521;50.160;20.802;2022-07-29T18:55:58;99747.36;;;21.10;55.50
59315;BME280;46521;50.160;20.802;2022-07-29T19:06:01;99738.25;;;21.22;56.62
59315;BME280;46521;50.160;20.802;2022-07-29T19:16:02;99730.02;;;21.53;56.76
59315;BME280;46521;50.160;20.802;2022-07-29T19:26:04;99725.75;;;21.69;56.95
59315;BME280;46521;50.160;20.802;2022-07-29T19:36:06;99706.67;;;21.70;57.43
59315;BME280;46521;50.160;20.802;2022-07-29T19:46:08;99732.23;;;21.56;57.88
59315;BME280;46521;50.160;20.802;2022-07-29T19:56:10;99697.24;;;21.03;59.38
59315;BME280;46521;50.160;20.802;2022-07-29T20:06:12;99666.68;;;21.21;59.56
59315;BME280;46521;50.160;20.802;2022-07-29T20:16:13;99657.56;;;21.22;60.06
59315;BME280;46521;50.160;20.802;2022-07-29T20:26:16;99675.20;;;21.30;60.21
59315;BME280;46521;50.160;20.802;2022-07-29T20:36:17;99693.61;;;20.98;60.83
59315;BME280;46521;50.160;20.802;2022-07-29T20:46:18;99678.29;;;20.98;60.95
59315;BME280;46521;50.160;20.802;2022-07-29T20:56:20;99673.48;;;21.12;61.26
59315;BME280;46521;50.160;20.802;2022-07-29T21:06:21;99666.02;;;21.02;61.62
59315;BME280;46521;50.160;20.802;2022-07-29T21:16:22;99669.31;;;20.93;61.97
59315;BME280;46521;50.160;20.802;2022-07-29T21:26:25;99682.98;;;20.79;62.25
59315;BME280;46521;50.160;20.802;2022-07-29T21:36:27;99687.08;;;20.70;62.71
59315;BME280;46521;50.160;20.802;2022-07-29T21:46:28;99672.13;;;20.74;63.06
59315;BME280;46521;50.160;20.802;2022-07-29T21:56:29;99670.83;;;20.77;63.21
59315;BME280;46521;50.160;20.802;2022-07-29T22:06:31;99666.61;;;20.57;63.71
59315;BME280;46521;50.160;20.802;2022-07-29T22:16:34;99665.20;;;20.43;63.95
59315;BME280;46521;50.160;20.802;2022-07-29T22:26:36;99658.51;;;20.22;64.50
59315;BME280;46521;50.160;20.802;2022-07-29T22:36:39;99654.17;;;20.09;64.86
59315;BME280;46521;50.160;20.802;2022-07-29T22:46:41;99669.03;;;19.81;65.36
59315;BME280;46521;50.160;20.802;2022-07-29T22:56:43;99654.75;;;19.69;65.82
59315;BME280;46521;50.160;20.802;2022-07-29T23:06:44;99637.28;;;19.78;66.01
59315;BME280;46521;50.160;20.802;2022-07-29T23:16:45;99640.63;;;20.04;66.11
59315;BME280;46521;50.160;20.802;2022-07-29T23:26:47;99607.02;;;20.25;66.34
59315;BME280;46521;50.160;20.802;2022-07-29T23:36:48;99590.80;;;20.43;66.13
59315;BME280;46521;50.160;20.802;2022-07-29T23:46:49;99580.29;;;20.42;66.14
59315;BME280;46521;50.160;20.802;2022-07-29T23:56:51;99583.69;;;20.49;66.03
